createdAt,value
2022-08-21T00:02:23.386Z,73310.53
2022-08-21T00:12:28.781Z,73320.66
2022-08-21T00:22:30.907Z,73338.84
2022-08-21T00:32:35.891Z,73344.91
2022-08-21T00:42:44.019Z,73355.03
2022-08-21T00:52:52.998Z,73363.13
2022-08-21T01:02:59.385Z,73367.19
2022-08-21T01:13:09.078Z,73379.31
2022-08-21T01:23:13.895Z,73377.28
2022-08-21T01:33:23.274Z,73399.53
2022-08-21T01:43:25.708Z,73395.50
2022-08-21T01:53:42.170Z,73401.56
2022-08-21T02:03:46.964Z,73399.53
2022-08-21T02:13:52.222Z,73409.66
2022-08-21T02:23:54.412Z,73407.63
2022-08-21T02:34:01.318Z,73415.72
2022-08-21T02:44:03.586Z,73435.94
2022-08-21T02:54:10.523Z,73448.06
2022-08-21T03:04:15.245Z,73456.16
2022-08-21T03:14:18.306Z,73472.34
2022-08-21T03:24:26.508Z,73484.47
2022-08-21T03:34:30.886Z,73504.72
2022-08-21T03:44:33.802Z,73514.81
2022-08-21T03:54:38.135Z,73537.06
2022-08-21T04:04:42.424Z,73555.28
2022-08-21T04:14:44.451Z,73526.97
2022-08-21T04:24:46.576Z,73504.72
2022-08-21T04:34:52.027Z,73452.13
2022-08-21T04:44:56.701Z,73371.22
2022-08-21T04:54:59.804Z,73304.47
2022-08-21T05:05:02.340Z,73249.88
2022-08-21T05:15:07.358Z,73219.53
2022-08-21T05:25:16.666Z,73168.97
2022-08-21T05:35:19.852Z,73185.16
2022-08-21T05:45:42.229Z,73168.97
2022-08-21T05:55:48.328Z,73144.69
2022-08-21T06:05:54.119Z,73086.03
2022-08-21T06:16:11.719Z,73005.13
2022-08-21T06:26:18.014Z,73039.53
2022-08-21T06:36:27.074Z,72910.09
2022-08-21T06:46:32.590Z,72829.19
2022-08-21T06:56:36.429Z,72839.31
2022-08-21T07:06:43.276Z,72790.78
2022-08-21T07:16:51.206Z,72655.28
2022-08-21T07:26:57.992Z,72610.78
2022-08-21T07:37:10.179Z,72515.75
2022-08-21T07:47:13.567Z,72598.66
2022-08-21T07:57:21.809Z,72598.66
2022-08-21T08:07:28.763Z,72582.47
2022-08-21T08:17:33.439Z,72574.38
2022-08-21T08:27:36.072Z,72631.00
2022-08-21T08:37:41.973Z,72604.72
2022-08-21T08:47:50.345Z,72550.13
2022-08-21T08:57:52.632Z,72578.44
2022-08-21T09:08:21.589Z,72574.38
2022-08-21T09:18:42.673Z,72616.84
2022-08-21T09:28:56.209Z,72616.84
2022-08-21T09:38:58.375Z,72659.31
2022-08-21T09:49:02.601Z,72564.28
2022-08-21T09:59:18.411Z,72568.31
2022-08-21T10:09:25.156Z,72681.56
2022-08-21T10:19:42.284Z,72675.50
2022-08-21T10:30:14.983Z,72699.78
2022-08-21T10:40:38.585Z,72715.94
2022-08-21T10:50:55.552Z,72671.47
2022-08-21T11:01:14.009Z,72671.47
2022-08-21T11:11:35.998Z,72679.53
2022-08-21T11:21:46.111Z,72691.69
2022-08-21T11:32:18.908Z,72683.59
2022-08-21T11:43:08.226Z,72643.16
2022-08-21T11:53:24.521Z,72637.06
2022-08-21T12:03:32.853Z,72659.31
2022-08-21T12:13:42.592Z,72626.97
2022-08-21T12:23:52.721Z,72608.75
2022-08-21T12:34:03.997Z,72568.31
2022-08-21T12:44:12.140Z,72519.78
2022-08-21T12:54:32.583Z,72513.72
2022-08-21T13:04:45.259Z,72548.09
2022-08-21T13:14:51.390Z,72554.16
2022-08-21T13:24:55.809Z,72639.09
2022-08-21T13:34:58.892Z,72651.22
2022-08-21T13:45:00.967Z,72643.16
2022-08-21T13:55:16.631Z,72616.84
2022-08-21T14:05:25.970Z,72622.91
2022-08-21T14:15:33.257Z,72633.03
2022-08-21T14:25:43.861Z,72675.50
2022-08-21T14:35:55.378Z,72665.38
2022-08-21T14:45:59.774Z,72643.16
2022-08-21T14:56:11.156Z,72635.06
2022-08-21T15:06:13.371Z,72626.97
2022-08-21T15:16:20.013Z,72661.34
2022-08-21T15:26:26.494Z,72651.22
2022-08-21T15:36:28.613Z,72661.34
2022-08-21T15:46:33.407Z,72671.47
2022-08-21T15:56:47.053Z,72720.00
2022-08-21T16:06:55.626Z,72740.22
2022-08-21T16:17:04.997Z,72784.69
2022-08-21T16:27:08.069Z,72806.94
2022-08-21T16:37:24.076Z,72831.22
2022-08-21T16:47:31.878Z,72857.50
2022-08-21T16:57:37.167Z,72887.84
2022-08-21T17:07:39.462Z,72910.09
2022-08-21T17:17:43.964Z,72930.31
2022-08-21T17:27:50.445Z,72948.50
2022-08-21T17:37:55.304Z,72976.81
2022-08-21T17:48:01.652Z,73001.09
2022-08-21T17:58:14.825Z,73015.25
2022-08-21T18:08:21.454Z,73041.53
2022-08-21T18:18:29.941Z,73059.75
2022-08-21T18:28:32.098Z,73051.66
2022-08-21T18:38:35.939Z,73073.91
2022-08-21T18:48:38.025Z,73086.03
2022-08-21T18:58:44.410Z,73100.19
2022-08-21T19:08:46.430Z,73104.25
2022-08-21T19:18:50.304Z,73120.41
2022-08-21T19:28:55.444Z,73118.41
2022-08-21T19:39:01.550Z,73124.47
2022-08-21T19:49:14.731Z,73136.59
2022-08-21T19:59:18.554Z,73136.59
2022-08-21T20:09:29.394Z,73152.78
2022-08-21T20:19:31.638Z,73162.91
2022-08-21T20:29:39.319Z,73164.91
2022-08-21T20:39:44.030Z,73173.00
2022-08-21T20:49:59.559Z,73197.28
2022-08-21T21:10:35.474Z,73231.66
2022-08-21T21:20:47.621Z,73237.72
2022-08-21T21:30:57.769Z,73253.91
2022-08-21T21:41:37.294Z,73278.19
2022-08-21T21:52:05.571Z,73294.34
2022-08-21T22:02:21.454Z,73310.53
2022-08-21T22:12:31.387Z,73326.72
2022-08-21T22:22:36.345Z,73328.75
2022-08-21T22:32:45.719Z,73355.03
2022-08-21T22:43:07.320Z,73367.19
2022-08-21T22:53:11.727Z,73371.22
2022-08-21T23:03:24.979Z,73383.34
2022-08-21T23:13:30.239Z,73403.56
2022-08-21T23:23:58.941Z,73423.81
2022-08-21T23:34:06.142Z,73435.94
2022-08-21T23:44:26.846Z,73446.06
2022-08-21T23:54:43.398Z,73440.00
